sensor_id;sensor_type;location;lat;lon;timestamp;P1;durP1;ratioP1;P2;durP2;ratioP2
15616;SDS011;7908;51.688;7.130;2022-12-11T00:01:30;72.13;;;29.33;;
15616;SDS011;7908;51.688;7.130;2022-12-11T00:04:03;70.93;;;26.67;;
15616;SDS011;7908;51.688;7.130;2022-12-11T00:06:34;79.97;;;30.53;;
15616;SDS011;7908;51.688;7.130;2022-12-11T00:09:03;79.00;;;31.73;;
15616;SDS011;7908;51.688;7.130;2022-12-11T00:11:35;75.37;;;30.20;;
15616;SDS011;7908;51.688;7.130;2022-12-11T00:14:07;77.63;;;30.77;;
15616;SDS011;7908;51.688;7.130;2022-12-11T00:16:36;75.00;;;30.97;;
15616;SDS011;7908;51.688;7.130;2022-12-11T00:19:06;77.30;;;31.20;;
15616;SDS011;7908;51.688;7.130;2022-12-11T00:21:36;76.17;;;31.83;;
15616;SDS011;7908;51.688;7.130;2022-12-11T00:24:08;69.10;;;29.20;;
15616;SDS011;7908;51.688;7.130;2022-12-11T00:26:41;65.43;;;28.63;;
15616;SDS011;7908;51.688;7.130;2022-12-11T00:29:10;67.70;;;29.00;;
15616;SDS011;7908;51.688;7.130;2022-12-11T00:31:41;62.23;;;26.27;;
15616;SDS011;7908;51.688;7.130;2022-12-11T00:34:13;72.03;;;26.97;;
15616;SDS011;7908;51.688;7.130;2022-12-11T00:36:41;61.77;;;24.53;;
15616;SDS011;7908;51.688;7.130;2022-12-11T00:39:10;67.10;;;28.03;;
15616;SDS011;7908;51.688;7.130;2022-12-11T00:41:39;65.33;;;26.83;;
15616;SDS011;7908;51.688;7.130;2022-12-11T00:44:07;60.93;;;26.03;;
15616;SDS011;7908;51.688;7.130;2022-12-11T00:46:37;62.50;;;25.17;;
15616;SDS011;7908;51.688;7.130;2022-12-11T00:49:05;62.53;;;27.77;;
15616;SDS011;7908;51.688;7.130;2022-12-11T00:51:35;70.87;;;24.07;;
15616;SDS011;7908;51.688;7.130;2022-12-11T00:54:04;61.80;;;26.53;;
15616;SDS011;7908;51.688;7.130;2022-12-11T00:56:33;71.27;;;28.97;;
15616;SDS011;7908;51.688;7.130;2022-12-11T00:59:01;69.50;;;28.37;;
15616;SDS011;7908;51.688;7.130;2022-12-11T01:01:30;64.37;;;25.97;;
15616;SDS011;7908;51.688;7.130;2022-12-11T01:03:59;61.27;;;23.50;;
15616;SDS011;7908;51.688;7.130;2022-12-11T01:06:28;68.00;;;26.40;;
15616;SDS011;7908;51.688;7.130;2022-12-11T01:08:58;72.93;;;27.70;;
15616;SDS011;7908;51.688;7.130;2022-12-11T01:11:44;67.63;;;24.10;;
15616;SDS011;7908;51.688;7.130;2022-12-11T01:14:12;78.10;;;29.30;;
15616;SDS011;7908;51.688;7.130;2022-12-11T01:16:41;77.33;;;27.67;;
15616;SDS011;7908;51.688;7.130;2022-12-11T01:19:09;83.10;;;31.93;;
15616;SDS011;7908;51.688;7.130;2022-12-11T01:21:38;97.80;;;33.63;;
15616;SDS011;7908;51.688;7.130;2022-12-11T01:24:11;100.70;;;35.87;;
15616;SDS011;7908;51.688;7.130;2022-12-11T01:26:39;90.13;;;31.37;;
15616;SDS011;7908;51.688;7.130;2022-12-11T01:29:08;101.77;;;32.63;;
15616;SDS011;7908;51.688;7.130;2022-12-11T01:31:36;102.47;;;31.70;;
15616;SDS011;7908;51.688;7.130;2022-12-11T01:34:05;112.33;;;36.87;;
15616;SDS011;7908;51.688;7.130;2022-12-11T01:36:34;75.73;;;26.17;;
15616;SDS011;7908;51.688;7.130;2022-12-11T01:39:03;69.57;;;26.13;;
15616;SDS011;7908;51.688;7.130;2022-12-11T01:41:32;68.23;;;25.47;;
15616;SDS011;7908;51.688;7.130;2022-12-11T01:44:02;62.73;;;25.67;;
15616;SDS011;7908;51.688;7.130;2022-12-11T01:46:33;69.80;;;27.03;;
15616;SDS011;7908;51.688;7.130;2022-12-11T01:49:05;72.47;;;27.13;;
15616;SDS011;7908;51.688;7.130;2022-12-11T01:51:37;70.50;;;26.97;;
15616;SDS011;7908;51.688;7.130;2022-12-11T01:54:10;64.30;;;24.80;;
15616;SDS011;7908;51.688;7.130;2022-12-11T01:56:41;63.70;;;25.37;;
15616;SDS011;7908;51.688;7.130;2022-12-11T01:59:11;65.20;;;24.23;;
15616;SDS011;7908;51.688;7.130;2022-12-11T02:01:45;58.07;;;22.50;;
15616;SDS011;7908;51.688;7.130;2022-12-11T02:04:17;65.83;;;25.17;;
15616;SDS011;7908;51.688;7.130;2022-12-11T02:06:48;83.00;;;33.80;;
15616;SDS011;7908;51.688;7.130;2022-12-11T02:09:21;65.57;;;27.57;;
15616;SDS011;7908;51.688;7.130;2022-12-11T02:11:55;68.37;;;25.83;;
15616;SDS011;7908;51.688;7.130;2022-12-11T02:14:30;64.00;;;26.20;;
15616;SDS011;7908;51.688;7.130;2022-12-11T02:17:08;79.10;;;26.77;;
15616;SDS011;7908;51.688;7.130;2022-12-11T02:19:48;77.73;;;27.33;;
15616;SDS011;7908;51.688;7.130;2022-12-11T02:22:27;70.67;;;26.40;;
15616;SDS011;7908;51.688;7.130;2022-12-11T02:25:08;70.27;;;26.40;;
15616;SDS011;7908;51.688;7.130;2022-12-11T02:27:45;84.67;;;29.33;;
15616;SDS011;7908;51.688;7.130;2022-12-11T02:30:23;76.53;;;27.30;;
15616;SDS011;7908;51.688;7.130;2022-12-11T02:32:53;82.77;;;28.30;;
15616;SDS011;7908;51.688;7.130;2022-12-11T02:35:23;72.73;;;26.63;;
15616;SDS011;7908;51.688;7.130;2022-12-11T02:37:58;78.33;;;26.73;;
15616;SDS011;7908;51.688;7.130;2022-12-11T02:40:30;85.73;;;30.37;;
15616;SDS011;7908;51.688;7.130;2022-12-11T02:43:02;84.50;;;29.60;;
15616;SDS011;7908;51.688;7.130;2022-12-11T02:45:35;78.97;;;29.13;;
15616;SDS011;7908;51.688;7.130;2022-12-11T02:48:06;84.73;;;30.00;;
15616;SDS011;7908;51.688;7.130;2022-12-11T02:50:38;87.97;;;30.60;;
15616;SDS011;7908;51.688;7.130;2022-12-11T02:53:11;87.30;;;27.77;;
15616;SDS011;7908;51.688;7.130;2022-12-11T02:55:42;86.67;;;29.43;;
15616;SDS011;7908;51.688;7.130;2022-12-11T02:58:13;79.33;;;29.97;;
15616;SDS011;7908;51.688;7.130;2022-12-11T03:00:46;92.80;;;31.87;;
15616;SDS011;7908;51.688;7.130;2022-12-11T03:03:15;81.20;;;29.60;;
15616;SDS011;7908;51.688;7.130;2022-12-11T03:05:44;72.83;;;28.90;;
15616;SDS011;7908;51.688;7.130;2022-12-11T03:08:12;76.97;;;27.80;;
15616;SDS011;7908;51.688;7.130;2022-12-11T03:10:44;76.90;;;31.00;;
15616;SDS011;7908;51.688;7.130;2022-12-11T03:13:13;69.00;;;30.93;;
15616;SDS011;7908;51.688;7.130;2022-12-11T03:15:47;79.73;;;31.93;;
15616;SDS011;7908;51.688;7.130;2022-12-11T03:18:26;83.53;;;32.40;;
15616;SDS011;7908;51.688;7.130;2022-12-11T03:21:02;66.33;;;27.50;;
15616;SDS011;7908;51.688;7.130;2022-12-11T03:23:36;63.20;;;26.57;;
15616;SDS011;7908;51.688;7.130;2022-12-11T03:26:11;62.97;;;27.43;;
15616;SDS011;7908;51.688;7.130;2022-12-11T03:28:43;62.63;;;27.27;;
15616;SDS011;7908;51.688;7.130;2022-12-11T03:31:19;64.00;;;28.27;;
15616;SDS011;7908;51.688;7.130;2022-12-11T03:33:50;71.23;;;30.23;;
15616;SDS011;7908;51.688;7.130;2022-12-11T03:36:24;70.43;;;27.23;;
15616;SDS011;7908;51.688;7.130;2022-12-11T03:38:57;68.43;;;28.00;;
15616;SDS011;7908;51.688;7.130;2022-12-11T03:41:28;68.97;;;29.10;;
15616;SDS011;7908;51.688;7.130;2022-12-11T03:44:00;73.93;;;30.40;;
15616;SDS011;7908;51.688;7.130;2022-12-11T03:46:30;74.80;;;31.53;;
15616;SDS011;7908;51.688;7.130;2022-12-11T03:49:04;75.83;;;29.83;;
15616;SDS011;7908;51.688;7.130;2022-12-11T03:51:37;73.57;;;30.67;;
15616;SDS011;7908;51.688;7.130;2022-12-11T03:54:07;76.77;;;30.40;;
15616;SDS011;7908;51.688;7.130;2022-12-11T03:56:37;73.67;;;29.77;;
15616;SDS011;7908;51.688;7.130;2022-12-11T03:59:09;70.77;;;28.70;;
15616;SDS011;7908;51.688;7.130;2022-12-11T04:01:39;64.63;;;27.43;;
15616;SDS011;7908;51.688;7.130;2022-12-11T04:04:07;67.10;;;26.93;;
15616;SDS011;7908;51.688;7.130;2022-12-11T04:06:36;60.17;;;26.73;;
15616;SDS011;7908;51.688;7.130;2022-12-11T04:09:05;60.47;;;27.40;;
15616;SDS011;7908;51.688;7.130;2022-12-11T04:11:33;58.13;;;26.83;;
15616;SDS011;7908;51.688;7.130;2022-12-11T04:14:02;57.33;;;27.47;;
15616;SDS011;7908;51.688;7.130;2022-12-11T04:16:51;59.67;;;26.83;;
15616;SDS011;7908;51.688;7.130;2022-12-11T04:19:20;62.97;;;27.67;;
15616;SDS011;7908;51.688;7.130;2022-12-11T04:22:06;59.57;;;25.93;;
15616;SDS011;7908;51.688;7.130;2022-12-11T04:25:06;59.00;;;26.47;;
15616;SDS011;7908;51.688;7.130;2022-12-11T04:27:35;62.07;;;27.87;;
15616;SDS011;7908;51.688;7.130;2022-12-11T04:30:18;57.90;;;27.93;;
15616;SDS011;7908;51.688;7.130;2022-12-11T04:32:50;49.17;;;23.97;;
15616;SDS011;7908;51.688;7.130;2022-12-11T04:35:19;51.80;;;24.30;;
15616;SDS011;7908;51.688;7.130;2022-12-11T04:37:48;50.57;;;24.97;;
15616;SDS011;7908;51.688;7.130;2022-12-11T04:40:19;49.90;;;26.20;;
15616;SDS011;7908;51.688;7.130;2022-12-11T04:42:47;47.67;;;24.83;;
15616;SDS011;7908;51.688;7.130;2022-12-11T04:45:16;48.73;;;25.20;;
15616;SDS011;7908;51.688;7.130;2022-12-11T04:47:45;51.33;;;24.80;;
15616;SDS011;7908;51.688;7.130;2022-12-11T04:50:15;49.50;;;22.20;;
15616;SDS011;7908;51.688;7.130;2022-12-11T04:52:45;47.17;;;24.40;;
15616;SDS011;7908;51.688;7.130;2022-12-11T04:55:13;48.70;;;24.50;;
15616;SDS011;7908;51.688;7.130;2022-12-11T04:57:42;46.07;;;23.50;;
15616;SDS011;7908;51.688;7.130;2022-12-11T05:00:11;41.67;;;21.80;;
15616;SDS011;7908;51.688;7.130;2022-12-11T05:02:40;47.40;;;23.13;;
15616;SDS011;7908;51.688;7.130;2022-12-11T05:05:09;48.50;;;25.97;;
15616;SDS011;7908;51.688;7.130;2022-12-11T05:07:40;48.77;;;26.47;;
15616;SDS011;7908;51.688;7.130;2022-12-11T05:10:09;57.10;;;28.90;;
15616;SDS011;7908;51.688;7.130;2022-12-11T05:12:37;64.50;;;33.30;;
15616;SDS011;7908;51.688;7.130;2022-12-11T05:15:06;62.23;;;35.60;;
15616;SDS011;7908;51.688;7.130;2022-12-11T05:17:36;58.40;;;33.00;;
15616;SDS011;7908;51.688;7.130;2022-12-11T05:20:05;52.40;;;26.73;;
15616;SDS011;7908;51.688;7.130;2022-12-11T05:22:34;46.37;;;23.87;;
15616;SDS011;7908;51.688;7.130;2022-12-11T05:25:05;40.70;;;21.80;;
15616;SDS011;7908;51.688;7.130;2022-12-11T05:27:35;41.53;;;21.70;;
15616;SDS011;7908;51.688;7.130;2022-12-11T05:30:04;47.60;;;24.10;;
15616;SDS011;7908;51.688;7.130;2022-12-11T05:32:33;47.90;;;24.33;;
15616;SDS011;7908;51.688;7.130;2022-12-11T05:35:02;50.77;;;23.43;;
15616;SDS011;7908;51.688;7.130;2022-12-11T05:37:31;50.47;;;23.67;;
15616;SDS011;7908;51.688;7.130;2022-12-11T05:40:01;53.03;;;23.93;;
15616;SDS011;7908;51.688;7.130;2022-12-11T05:42:33;49.23;;;23.83;;
15616;SDS011;7908;51.688;7.130;2022-12-11T05:45:01;50.83;;;25.57;;
15616;SDS011;7908;51.688;7.130;2022-12-11T05:47:30;52.10;;;25.33;;
15616;SDS011;7908;51.688;7.130;2022-12-11T05:49:59;53.93;;;25.20;;
15616;SDS011;7908;51.688;7.130;2022-12-11T05:52:27;50.03;;;25.80;;
15616;SDS011;7908;51.688;7.130;2022-12-11T05:54:57;53.40;;;26.53;;
15616;SDS011;7908;51.688;7.130;2022-12-11T05:57:26;52.97;;;25.70;;
15616;SDS011;7908;51.688;7.130;2022-12-11T05:59:56;51.07;;;25.13;;
15616;SDS011;7908;51.688;7.130;2022-12-11T06:02:24;60.60;;;28.13;;
15616;SDS011;7908;51.688;7.130;2022-12-11T06:04:53;52.80;;;27.13;;
15616;SDS011;7908;51.688;7.130;2022-12-11T06:07:21;55.70;;;27.93;;
15616;SDS011;7908;51.688;7.130;2022-12-11T06:09:49;56.97;;;28.77;;
15616;SDS011;7908;51.688;7.130;2022-12-11T06:12:18;72.47;;;31.93;;
15616;SDS011;7908;51.688;7.130;2022-12-11T06:14:47;76.93;;;32.77;;
15616;SDS011;7908;51.688;7.130;2022-12-11T06:17:17;79.43;;;33.83;;
15616;SDS011;7908;51.688;7.130;2022-12-11T06:19:45;84.03;;;35.50;;
15616;SDS011;7908;51.688;7.130;2022-12-11T06:22:13;78.33;;;34.37;;
15616;SDS011;7908;51.688;7.130;2022-12-11T06:24:42;82.10;;;33.33;;
15616;SDS011;7908;51.688;7.130;2022-12-11T06:27:10;83.07;;;34.37;;
15616;SDS011;7908;51.688;7.130;2022-12-11T06:29:39;72.27;;;31.23;;
15616;SDS011;7908;51.688;7.130;2022-12-11T06:32:08;63.37;;;32.10;;
15616;SDS011;7908;51.688;7.130;2022-12-11T06:34:37;66.23;;;31.87;;
15616;SDS011;7908;51.688;7.130;2022-12-11T06:37:06;65.73;;;32.60;;
15616;SDS011;7908;51.688;7.130;2022-12-11T06:39:34;56.57;;;27.73;;
15616;SDS011;7908;51.688;7.130;2022-12-11T06:42:05;51.17;;;25.17;;
15616;SDS011;7908;51.688;7.130;2022-12-11T06:44:34;49.50;;;24.33;;
15616;SDS011;7908;51.688;7.130;2022-12-11T06:47:02;51.27;;;24.27;;
15616;SDS011;7908;51.688;7.130;2022-12-11T06:49:31;49.33;;;25.77;;
15616;SDS011;7908;51.688;7.130;2022-12-11T06:52:01;50.80;;;25.93;;
15616;SDS011;7908;51.688;7.130;2022-12-11T06:54:30;47.13;;;24.63;;
15616;SDS011;7908;51.688;7.130;2022-12-11T06:56:59;51.60;;;25.60;;
15616;SDS011;7908;51.688;7.130;2022-12-11T06:59:27;52.27;;;25.77;;
15616;SDS011;7908;51.688;7.130;2022-12-11T07:01:56;50.80;;;25.53;;
15616;SDS011;7908;51.688;7.130;2022-12-11T07:04:24;55.57;;;27.43;;
15616;SDS011;7908;51.688;7.130;2022-12-11T07:06:53;51.53;;;25.23;;
15616;SDS011;7908;51.688;7.130;2022-12-11T07:09:23;60.87;;;29.60;;
15616;SDS011;7908;51.688;7.130;2022-12-11T07:11:51;65.17;;;32.30;;
15616;SDS011;7908;51.688;7.130;2022-12-11T07:14:20;80.83;;;36.17;;
15616;SDS011;7908;51.688;7.130;2022-12-11T07:16:48;66.43;;;30.33;;
15616;SDS011;7908;51.688;7.130;2022-12-11T07:19:17;81.53;;;36.27;;
15616;SDS011;7908;51.688;7.130;2022-12-11T07:21:46;66.17;;;30.87;;
15616;SDS011;7908;51.688;7.130;2022-12-11T07:24:14;71.77;;;34.83;;
15616;SDS011;7908;51.688;7.130;2022-12-11T07:26:44;61.70;;;32.20;;
15616;SDS011;7908;51.688;7.130;2022-12-11T07:29:12;70.43;;;33.80;;
15616;SDS011;7908;51.688;7.130;2022-12-11T07:31:41;76.77;;;42.13;;
15616;SDS011;7908;51.688;7.130;2022-12-11T07:34:11;80.87;;;40.60;;
15616;SDS011;7908;51.688;7.130;2022-12-11T07:36:40;73.40;;;38.73;;
15616;SDS011;7908;51.688;7.130;2022-12-11T07:39:09;85.97;;;42.30;;
15616;SDS011;7908;51.688;7.130;2022-12-11T07:41:38;72.37;;;37.27;;
15616;SDS011;7908;51.688;7.130;2022-12-11T07:44:08;75.63;;;38.63;;
15616;SDS011;7908;51.688;7.130;2022-12-11T07:46:37;71.20;;;36.33;;
15616;SDS011;7908;51.688;7.130;2022-12-11T07:49:06;70.70;;;36.87;;
15616;SDS011;7908;51.688;7.130;2022-12-11T07:51:35;74.67;;;38.53;;
15616;SDS011;7908;51.688;7.130;2022-12-11T07:54:05;67.93;;;35.93;;
15616;SDS011;7908;51.688;7.130;2022-12-11T07:56:37;83.03;;;39.37;;
15616;SDS011;7908;51.688;7.130;2022-12-11T07:59:11;71.43;;;36.70;;
15616;SDS011;7908;51.688;7.130;2022-12-11T08:01:39;69.70;;;34.80;;
15616;SDS011;7908;51.688;7.130;2022-12-11T08:04:08;67.87;;;34.67;;
15616;SDS011;7908;51.688;7.130;2022-12-11T08:06:41;70.00;;;31.63;;
15616;SDS011;7908;51.688;7.130;2022-12-11T08:09:11;67.73;;;30.17;;
15616;SDS011;7908;51.688;7.130;2022-12-11T08:11:47;68.00;;;31.10;;
15616;SDS011;7908;51.688;7.130;2022-12-11T08:14:18;64.23;;;31.43;;
15616;SDS011;7908;51.688;7.130;2022-12-11T08:16:47;68.40;;;32.43;;
15616;SDS011;7908;51.688;7.130;2022-12-11T08:19:16;60.73;;;31.87;;
15616;SDS011;7908;51.688;7.130;2022-12-11T08:21:45;58.13;;;29.83;;
15616;SDS011;7908;51.688;7.130;2022-12-11T08:24:13;67.00;;;31.60;;
15616;SDS011;7908;51.688;7.130;2022-12-11T08:26:46;67.23;;;32.93;;
15616;SDS011;7908;51.688;7.130;2022-12-11T08:29:15;66.87;;;31.17;;
15616;SDS011;7908;51.688;7.130;2022-12-11T08:31:45;63.97;;;30.73;;
15616;SDS011;7908;51.688;7.130;2022-12-11T08:34:14;64.80;;;31.20;;
15616;SDS011;7908;51.688;7.130;2022-12-11T08:36:42;60.80;;;31.97;;
15616;SDS011;7908;51.688;7.130;2022-12-11T08:39:11;64.60;;;32.07;;
15616;SDS011;7908;51.688;7.130;2022-12-11T08:41:40;62.93;;;32.90;;
15616;SDS011;7908;51.688;7.130;2022-12-11T08:44:09;59.90;;;30.37;;
15616;SDS011;7908;51.688;7.130;2022-12-11T08:46:44;60.13;;;29.83;;
15616;SDS011;7908;51.688;7.130;2022-12-11T08:49:13;49.80;;;27.97;;
15616;SDS011;7908;51.688;7.130;2022-12-11T08:51:43;51.70;;;27.80;;
15616;SDS011;7908;51.688;7.130;2022-12-11T08:54:13;55.20;;;28.70;;
15616;SDS011;7908;51.688;7.130;2022-12-11T08:56:45;59.37;;;30.33;;
15616;SDS011;7908;51.688;7.130;2022-12-11T08:59:18;60.53;;;30.40;;
15616;SDS011;7908;51.688;7.130;2022-12-11T09:01:49;56.33;;;28.73;;
15616;SDS011;7908;51.688;7.130;2022-12-11T09:04:20;69.80;;;34.40;;
15616;SDS011;7908;51.688;7.130;2022-12-11T09:06:49;112.47;;;48.80;;
15616;SDS011;7908;51.688;7.130;2022-12-11T09:09:18;103.17;;;45.37;;
15616;SDS011;7908;51.688;7.130;2022-12-11T09:11:46;92.40;;;44.27;;
15616;SDS011;7908;51.688;7.130;2022-12-11T09:14:16;66.90;;;33.77;;
15616;SDS011;7908;51.688;7.130;2022-12-11T09:16:44;58.47;;;29.53;;
15616;SDS011;7908;51.688;7.130;2022-12-11T09:19:15;60.03;;;30.33;;
15616;SDS011;7908;51.688;7.130;2022-12-11T09:21:45;73.10;;;34.97;;
15616;SDS011;7908;51.688;7.130;2022-12-11T09:24:14;66.10;;;31.70;;
15616;SDS011;7908;51.688;7.130;2022-12-11T09:26:43;59.37;;;33.47;;
15616;SDS011;7908;51.688;7.130;2022-12-11T09:29:14;67.53;;;40.33;;
15616;SDS011;7908;51.688;7.130;2022-12-11T09:31:43;73.23;;;43.27;;
15616;SDS011;7908;51.688;7.130;2022-12-11T09:34:16;92.47;;;50.53;;
15616;SDS011;7908;51.688;7.130;2022-12-11T09:36:54;83.57;;;50.10;;
15616;SDS011;7908;51.688;7.130;2022-12-11T09:39:23;92.10;;;55.37;;
15616;SDS011;7908;51.688;7.130;2022-12-11T09:41:54;72.10;;;44.37;;
15616;SDS011;7908;51.688;7.130;2022-12-11T09:44:38;98.03;;;55.90;;
15616;SDS011;7908;51.688;7.130;2022-12-11T09:47:15;71.87;;;39.40;;
15616;SDS011;7908;51.688;7.130;2022-12-11T09:49:52;81.00;;;43.83;;
15616;SDS011;7908;51.688;7.130;2022-12-11T09:52:31;85.13;;;47.50;;
15616;SDS011;7908;51.688;7.130;2022-12-11T09:55:08;80.87;;;46.00;;
15616;SDS011;7908;51.688;7.130;2022-12-11T09:57:46;86.87;;;46.27;;
15616;SDS011;7908;51.688;7.130;2022-12-11T10:00:22;92.83;;;50.17;;
15616;SDS011;7908;51.688;7.130;2022-12-11T10:03:03;90.70;;;43.60;;
15616;SDS011;7908;51.688;7.130;2022-12-11T10:05:59;105.03;;;54.17;;
15616;SDS011;7908;51.688;7.130;2022-12-11T10:08:42;97.90;;;49.63;;
15616;SDS011;7908;51.688;7.130;2022-12-11T10:11:25;100.47;;;52.13;;
15616;SDS011;7908;51.688;7.130;2022-12-11T10:14:23;103.30;;;51.53;;
15616;SDS011;7908;51.688;7.130;2022-12-11T10:17:01;108.87;;;56.20;;
15616;SDS011;7908;51.688;7.130;2022-12-11T10:19:36;114.27;;;58.73;;
15616;SDS011;7908;51.688;7.130;2022-12-11T10:22:22;88.70;;;51.17;;
15616;SDS011;7908;51.688;7.130;2022-12-11T10:25:05;89.17;;;50.43;;
15616;SDS011;7908;51.688;7.130;2022-12-11T10:27:48;77.40;;;43.83;;
15616;SDS011;7908;51.688;7.130;2022-12-11T10:30:17;101.07;;;55.27;;
15616;SDS011;7908;51.688;7.130;2022-12-11T10:32:49;92.53;;;49.63;;
15616;SDS011;7908;51.688;7.130;2022-12-11T10:35:28;64.63;;;38.43;;
15616;SDS011;7908;51.688;7.130;2022-12-11T10:38:12;77.93;;;46.60;;
15616;SDS011;7908;51.688;7.130;2022-12-11T10:40:43;90.90;;;47.20;;
15616;SDS011;7908;51.688;7.130;2022-12-11T10:43:16;89.73;;;48.03;;
15616;SDS011;7908;51.688;7.130;2022-12-11T10:45:49;80.37;;;43.23;;
15616;SDS011;7908;51.688;7.130;2022-12-11T10:48:24;191.93;;;97.87;;
15616;SDS011;7908;51.688;7.130;2022-12-11T10:51:00;100.87;;;54.13;;
15616;SDS011;7908;51.688;7.130;2022-12-11T10:53:34;78.60;;;46.93;;
15616;SDS011;7908;51.688;7.130;2022-12-11T10:56:11;141.27;;;77.70;;
15616;SDS011;7908;51.688;7.130;2022-12-11T10:58:46;111.00;;;60.90;;
15616;SDS011;7908;51.688;7.130;2022-12-11T11:01:34;113.17;;;68.30;;
15616;SDS011;7908;51.688;7.130;2022-12-11T11:04:05;69.23;;;43.57;;
15616;SDS011;7908;51.688;7.130;2022-12-11T11:06:42;65.30;;;43.47;;
15616;SDS011;7908;51.688;7.130;2022-12-11T11:11:58;53.03;;;35.37;;
15616;SDS011;7908;51.688;7.130;2022-12-11T11:14:33;46.47;;;29.80;;
15616;SDS011;7908;51.688;7.130;2022-12-11T11:17:10;51.30;;;32.23;;
15616;SDS011;7908;51.688;7.130;2022-12-11T11:19:45;50.87;;;30.47;;
15616;SDS011;7908;51.688;7.130;2022-12-11T11:22:15;49.87;;;33.53;;
15616;SDS011;7908;51.688;7.130;2022-12-11T11:24:54;54.40;;;34.93;;
15616;SDS011;7908;51.688;7.130;2022-12-11T11:27:35;50.33;;;32.40;;
15616;SDS011;7908;51.688;7.130;2022-12-11T11:30:16;56.13;;;32.70;;
15616;SDS011;7908;51.688;7.130;2022-12-11T11:32:47;52.83;;;32.23;;
15616;SDS011;7908;51.688;7.130;2022-12-11T11:35:24;61.07;;;36.07;;
15616;SDS011;7908;51.688;7.130;2022-12-11T11:38:02;54.00;;;32.67;;
15616;SDS011;7908;51.688;7.130;2022-12-11T11:40:41;76.03;;;42.90;;
15616;SDS011;7908;51.688;7.130;2022-12-11T11:43:23;92.20;;;50.43;;
15616;SDS011;7908;51.688;7.130;2022-12-11T11:46:01;86.17;;;48.57;;
15616;SDS011;7908;51.688;7.130;2022-12-11T11:48:35;80.87;;;43.37;;
15616;SDS011;7908;51.688;7.130;2022-12-11T11:51:13;115.30;;;58.43;;
15616;SDS011;7908;51.688;7.130;2022-12-11T11:53:46;81.00;;;47.27;;
15616;SDS011;7908;51.688;7.130;2022-12-11T11:56:20;69.63;;;43.00;;
15616;SDS011;7908;51.688;7.130;2022-12-11T11:59:06;61.27;;;38.17;;
15616;SDS011;7908;51.688;7.130;2022-12-11T12:01:49;57.97;;;38.13;;
15616;SDS011;7908;51.688;7.130;2022-12-11T12:04:26;64.43;;;41.97;;
15616;SDS011;7908;51.688;7.130;2022-12-11T12:07:12;64.17;;;40.80;;
15616;SDS011;7908;51.688;7.130;2022-12-11T12:09:57;88.07;;;45.97;;
15616;SDS011;7908;51.688;7.130;2022-12-11T12:12:40;66.87;;;37.90;;
15616;SDS011;7908;51.688;7.130;2022-12-11T12:15:22;51.73;;;32.63;;
15616;SDS011;7908;51.688;7.130;2022-12-11T12:18:08;52.47;;;34.20;;
15616;SDS011;7908;51.688;7.130;2022-12-11T12:20:53;53.43;;;33.73;;
15616;SDS011;7908;51.688;7.130;2022-12-11T12:23:36;47.70;;;32.10;;
15616;SDS011;7908;51.688;7.130;2022-12-11T12:26:20;49.37;;;32.27;;
15616;SDS011;7908;51.688;7.130;2022-12-11T12:29:00;47.43;;;30.43;;
15616;SDS011;7908;51.688;7.130;2022-12-11T12:31:51;48.00;;;30.27;;
15616;SDS011;7908;51.688;7.130;2022-12-11T12:34:30;49.43;;;30.60;;
15616;SDS011;7908;51.688;7.130;2022-12-11T12:37:11;51.97;;;32.47;;
15616;SDS011;7908;51.688;7.130;2022-12-11T12:39:50;47.87;;;32.90;;
15616;SDS011;7908;51.688;7.130;2022-12-11T12:42:35;47.60;;;30.40;;
15616;SDS011;7908;51.688;7.130;2022-12-11T12:48:14;56.97;;;33.23;;
15616;SDS011;7908;51.688;7.130;2022-12-11T12:50:52;56.17;;;34.33;;
15616;SDS011;7908;51.688;7.130;2022-12-11T12:53:27;42.30;;;27.07;;
15616;SDS011;7908;51.688;7.130;2022-12-11T12:56:13;41.03;;;24.67;;
15616;SDS011;7908;51.688;7.130;2022-12-11T12:58:52;40.43;;;24.97;;
15616;SDS011;7908;51.688;7.130;2022-12-11T13:01:24;36.70;;;23.47;;
15616;SDS011;7908;51.688;7.130;2022-12-11T13:03:57;35.30;;;24.43;;
15616;SDS011;7908;51.688;7.130;2022-12-11T13:07:08;33.67;;;22.83;;
15616;SDS011;7908;51.688;7.130;2022-12-11T13:09:53;41.13;;;24.30;;
15616;SDS011;7908;51.688;7.130;2022-12-11T13:12:38;43.13;;;25.93;;
15616;SDS011;7908;51.688;7.130;2022-12-11T13:15:29;41.17;;;24.30;;
15616;SDS011;7908;51.688;7.130;2022-12-11T13:18:29;39.87;;;23.80;;
15616;SDS011;7908;51.688;7.130;2022-12-11T13:21:03;38.77;;;23.90;;
15616;SDS011;7908;51.688;7.130;2022-12-11T13:23:52;41.80;;;24.57;;
15616;SDS011;7908;51.688;7.130;2022-12-11T13:26:28;41.90;;;25.77;;
15616;SDS011;7908;51.688;7.130;2022-12-11T13:29:02;44.70;;;27.27;;
15616;SDS011;7908;51.688;7.130;2022-12-11T13:31:57;44.53;;;26.90;;
15616;SDS011;7908;51.688;7.130;2022-12-11T13:34:32;42.50;;;27.33;;
15616;SDS011;7908;51.688;7.130;2022-12-11T13:37:05;46.33;;;26.30;;
15616;SDS011;7908;51.688;7.130;2022-12-11T13:39:47;47.83;;;27.20;;
15616;SDS011;7908;51.688;7.130;2022-12-11T13:42:19;42.03;;;25.33;;
15616;SDS011;7908;51.688;7.130;2022-12-11T13:44:59;45.40;;;27.87;;
15616;SDS011;7908;51.688;7.130;2022-12-11T13:47:33;48.13;;;26.97;;
15616;SDS011;7908;51.688;7.130;2022-12-11T13:50:11;45.70;;;27.20;;
15616;SDS011;7908;51.688;7.130;2022-12-11T13:52:54;44.70;;;26.17;;
15616;SDS011;7908;51.688;7.130;2022-12-11T13:55:26;48.30;;;27.70;;
15616;SDS011;7908;51.688;7.130;2022-12-11T13:58:13;46.77;;;28.47;;
15616;SDS011;7908;51.688;7.130;2022-12-11T14:01:05;53.60;;;28.37;;
15616;SDS011;7908;51.688;7.130;2022-12-11T14:03:38;44.97;;;28.10;;
15616;SDS011;7908;51.688;7.130;2022-12-11T14:06:13;43.27;;;25.43;;
15616;SDS011;7908;51.688;7.130;2022-12-11T14:08:47;45.83;;;28.33;;
15616;SDS011;7908;51.688;7.130;2022-12-11T14:11:21;45.37;;;28.17;;
15616;SDS011;7908;51.688;7.130;2022-12-11T14:13:53;49.70;;;27.83;;
15616;SDS011;7908;51.688;7.130;2022-12-11T14:16:24;44.50;;;26.63;;
15616;SDS011;7908;51.688;7.130;2022-12-11T14:18:55;48.20;;;27.23;;
15616;SDS011;7908;51.688;7.130;2022-12-11T14:21:29;46.23;;;26.93;;
15616;SDS011;7908;51.688;7.130;2022-12-11T14:24:02;51.70;;;28.73;;
15616;SDS011;7908;51.688;7.130;2022-12-11T14:26:33;46.70;;;27.63;;
15616;SDS011;7908;51.688;7.130;2022-12-11T14:29:04;48.27;;;28.43;;
15616;SDS011;7908;51.688;7.130;2022-12-11T14:31:34;46.47;;;27.27;;
15616;SDS011;7908;51.688;7.130;2022-12-11T14:34:07;48.00;;;28.67;;
15616;SDS011;7908;51.688;7.130;2022-12-11T14:36:42;46.47;;;27.67;;
15616;SDS011;7908;51.688;7.130;2022-12-11T14:39:21;46.80;;;27.13;;
15616;SDS011;7908;51.688;7.130;2022-12-11T14:41:56;44.37;;;25.93;;
15616;SDS011;7908;51.688;7.130;2022-12-11T14:44:30;45.93;;;26.60;;
15616;SDS011;7908;51.688;7.130;2022-12-11T14:47:15;41.93;;;26.07;;
15616;SDS011;7908;51.688;7.130;2022-12-11T14:49:48;44.80;;;27.97;;
15616;SDS011;7908;51.688;7.130;2022-12-11T14:52:26;42.40;;;26.27;;
15616;SDS011;7908;51.688;7.130;2022-12-11T14:55:00;45.10;;;27.23;;
15616;SDS011;7908;51.688;7.130;2022-12-11T14:57:38;47.13;;;27.33;;
15616;SDS011;7908;51.688;7.130;2022-12-11T15:00:26;43.20;;;24.53;;
15616;SDS011;7908;51.688;7.130;2022-12-11T15:02:59;44.50;;;25.73;;
15616;SDS011;7908;51.688;7.130;2022-12-11T15:05:46;49.10;;;27.63;;
15616;SDS011;7908;51.688;7.130;2022-12-11T15:08:19;47.73;;;28.10;;
15616;SDS011;7908;51.688;7.130;2022-12-11T15:10:59;45.60;;;27.50;;
15616;SDS011;7908;51.688;7.130;2022-12-11T15:13:31;51.23;;;28.10;;
15616;SDS011;7908;51.688;7.130;2022-12-11T15:16:02;46.20;;;27.43;;